sensor_id;sensor_type;location;lat;lon;timestamp;pressure;altitude;pressure_sealevel;temperature;humidity
58534;BME280;44109;52.398;7.024;2024-02-26T00:01:06;99888.03;;;5.13;100.00
58534;BME280;44109;52.398;7.024;2024-02-26T00:03:33;99892.47;;;5.17;100.00
58534;BME280;44109;52.398;7.024;2024-02-26T00:06:02;99890.19;;;5.19;100.00
58534;BME280;44109;52.398;7.024;2024-02-26T00:08:29;99886.09;;;5.13;100.00
58534;BME280;44109;52.398;7.024;2024-02-26T00:10:57;99889.56;;;5.10;100.00
58534;BME280;44109;52.398;7.024;2024-02-26T00:13:25;99893.91;;;5.11;100.00
58534;BME280;44109;52.398;7.024;2024-02-26T00:15:52;99883.63;;;5.08;100.00
58534;BME280;44109;52.398;7.024;2024-02-26T00:18:21;99884.97;;;5.14;100.00
58534;BME280;44109;52.398;7.024;2024-02-26T00:20:49;99884.16;;;5.14;100.00
58534;BME280;44109;52.398;7.024;2024-02-26T00:23:17;99893.63;;;5.16;100.00
58534;BME280;44109;52.398;7.024;2024-02-26T00:25:45;99889.19;;;5.12;100.00
58534;BME280;44109;52.398;7.024;2024-02-26T00:28:14;99895.16;;;5.14;100.00
58534;BME280;44109;52.398;7.024;2024-02-26T00:30:41;99899.59;;;5.18;100.00
58534;BME280;44109;52.398;7.024;2024-02-26T00:33:09;99898.16;;;5.24;100.00
58534;BME280;44109;52.398;7.024;2024-02-26T00:35:38;99897.53;;;5.15;100.00
58534;BME280;44109;52.398;7.024;2024-02-26T00:38:06;99884.16;;;4.98;100.00
58534;BME280;44109;52.398;7.024;2024-02-26T00:40:33;99901.28;;;5.23;100.00
58534;BME280;44109;52.398;7.024;2024-02-26T00:43:01;99899.75;;;5.25;100.00
58534;BME280;44109;52.398;7.024;2024-02-26T00:45:28;99902.97;;;5.27;100.00
58534;BME280;44109;52.398;7.024;2024-02-26T00:47:58;99905.63;;;5.24;100.00
58534;BME280;44109;52.398;7.024;2024-02-26T00:50:28;99911.63;;;5.29;100.00
58534;BME280;44109;52.398;7.024;2024-02-26T00:52:57;99912.34;;;5.26;100.00
58534;BME280;44109;52.398;7.024;2024-02-26T00:55:25;99907.00;;;5.18;100.00
58534;BME280;44109;52.398;7.024;2024-02-26T00:57:52;99913.84;;;5.24;100.00
58534;BME280;44109;52.398;7.024;2024-02-26T01:00:20;99883.44;;;5.01;100.00
58534;BME280;44109;52.398;7.024;2024-02-26T01:02:48;99908.28;;;5.20;100.00
58534;BME280;44109;52.398;7.024;2024-02-26T01:05:15;99900.47;;;5.22;100.00
58534;BME280;44109;52.398;7.024;2024-02-26T01:07:43;99901.34;;;5.26;100.00
58534;BME280;44109;52.398;7.024;2024-02-26T01:10:12;99908.44;;;5.27;100.00
58534;BME280;44109;52.398;7.024;2024-02-26T01:12:40;99910.13;;;5.16;100.00
58534;BME280;44109;52.398;7.024;2024-02-26T01:15:08;99915.19;;;5.14;100.00
58534;BME280;44109;52.398;7.024;2024-02-26T01:17:36;99913.56;;;5.13;100.00
58534;BME280;44109;52.398;7.024;2024-02-26T01:20:06;99911.28;;;5.15;100.00
58534;BME280;44109;52.398;7.024;2024-02-26T01:22:35;99918.28;;;5.13;100.00
58534;BME280;44109;52.398;7.024;2024-02-26T01:25:02;99916.16;;;5.06;100.00
58534;BME280;44109;52.398;7.024;2024-02-26T01:27:32;99923.94;;;4.88;100.00
58534;BME280;44109;52.398;7.024;2024-02-26T01:29:59;99922.47;;;4.91;100.00
58534;BME280;44109;52.398;7.024;2024-02-26T01:32:27;99928.13;;;4.98;100.00
58534;BME280;44109;52.398;7.024;2024-02-26T01:34:54;99927.22;;;4.94;100.00
58534;BME280;44109;52.398;7.024;2024-02-26T01:37:22;99919.72;;;4.91;100.00
58534;BME280;44109;52.398;7.024;2024-02-26T01:39:49;99929.97;;;4.78;100.00
58534;BME280;44109;52.398;7.024;2024-02-26T01:42:17;99925.19;;;4.75;100.00
58534;BME280;44109;52.398;7.024;2024-02-26T01:44:46;99882.34;;;4.58;100.00
58534;BME280;44109;52.398;7.024;2024-02-26T01:47:14;99913.00;;;4.60;100.00
58534;BME280;44109;52.398;7.024;2024-02-26T01:49:41;99915.94;;;4.67;100.00
58534;BME280;44109;52.398;7.024;2024-02-26T01:52:09;99907.31;;;4.53;100.00
58534;BME280;44109;52.398;7.024;2024-02-26T01:54:40;99882.34;;;4.58;100.00
58534;BME280;44109;52.398;7.024;2024-02-26T01:57:09;99894.41;;;4.69;100.00
58534;BME280;44109;52.398;7.024;2024-02-26T01:59:39;99891.94;;;4.80;100.00
58534;BME280;44109;52.398;7.024;2024-02-26T02:02:10;99905.78;;;4.83;100.00
58534;BME280;44109;52.398;7.024;2024-02-26T02:04:39;99906.47;;;4.80;100.00
58534;BME280;44109;52.398;7.024;2024-02-26T02:07:07;99906.94;;;4.82;100.00
58534;BME280;44109;52.398;7.024;2024-02-26T02:09:36;99908.16;;;4.85;100.00
58534;BME280;44109;52.398;7.024;2024-02-26T02:12:04;99899.38;;;4.79;100.00
58534;BME280;44109;52.398;7.024;2024-02-26T02:14:33;99902.13;;;4.79;100.00
58534;BME280;44109;52.398;7.024;2024-02-26T02:17:00;99899.13;;;4.84;100.00
58534;BME280;44109;52.398;7.024;2024-02-26T02:19:29;99900.28;;;4.83;100.00
58534;BME280;44109;52.398;7.024;2024-02-26T02:21:58;99898.84;;;4.90;100.00
58534;BME280;44109;52.398;7.024;2024-02-26T02:24:26;99905.34;;;4.81;100.00
58534;BME280;44109;52.398;7.024;2024-02-26T02:26:53;99908.59;;;4.71;100.00
58534;BME280;44109;52.398;7.024;2024-02-26T02:29:21;99912.69;;;4.77;100.00
58534;BME280;44109;52.398;7.024;2024-02-26T02:31:49;99911.97;;;4.80;100.00
58534;BME280;44109;52.398;7.024;2024-02-26T02:34:17;99929.09;;;4.90;100.00
58534;BME280;44109;52.398;7.024;2024-02-26T02:36:49;99914.22;;;4.91;100.00
58534;BME280;44109;52.398;7.024;2024-02-26T02:39:18;99933.97;;;5.12;100.00
58534;BME280;44109;52.398;7.024;2024-02-26T02:41:46;99944.28;;;5.15;100.00
58534;BME280;44109;52.398;7.024;2024-02-26T02:44:13;99932.81;;;5.13;100.00
58534;BME280;44109;52.398;7.024;2024-02-26T02:46:41;99948.44;;;5.09;100.00
58534;BME280;44109;52.398;7.024;2024-02-26T02:49:09;99957.56;;;5.13;100.00
58534;BME280;44109;52.398;7.024;2024-02-26T02:51:36;99941.34;;;5.08;100.00
58534;BME280;44109;52.398;7.024;2024-02-26T02:54:04;99930.50;;;4.99;100.00
58534;BME280;44109;52.398;7.024;2024-02-26T02:56:33;99936.03;;;5.15;100.00
58534;BME280;44109;52.398;7.024;2024-02-26T02:59:01;99943.47;;;4.99;100.00
58534;BME280;44109;52.398;7.024;2024-02-26T03:01:30;99944.63;;;4.98;100.00
58534;BME280;44109;52.398;7.024;2024-02-26T03:03:57;99940.63;;;4.95;100.00
58534;BME280;44109;52.398;7.024;2024-02-26T03:06:25;99941.72;;;5.22;100.00
58534;BME280;44109;52.398;7.024;2024-02-26T03:08:54;99948.41;;;4.93;100.00
58534;BME280;44109;52.398;7.024;2024-02-26T03:11:22;99951.63;;;5.11;100.00
58534;BME280;44109;52.398;7.024;2024-02-26T03:13:51;99950.75;;;5.23;100.00
58534;BME280;44109;52.398;7.024;2024-02-26T03:16:18;99960.25;;;5.25;100.00
58534;BME280;44109;52.398;7.024;2024-02-26T03:18:46;99974.44;;;5.27;100.00
58534;BME280;44109;52.398;7.024;2024-02-26T03:21:13;99969.19;;;5.38;100.00
58534;BME280;44109;52.398;7.024;2024-02-26T03:23:41;99970.53;;;5.28;100.00
58534;BME280;44109;52.398;7.024;2024-02-26T03:26:09;99963.59;;;5.34;100.00
58534;BME280;44109;52.398;7.024;2024-02-26T03:28:39;99972.66;;;5.19;100.00
58534;BME280;44109;52.398;7.024;2024-02-26T03:31:08;99943.81;;;4.81;100.00
58534;BME280;44109;52.398;7.024;2024-02-26T03:33:36;99964.84;;;5.21;100.00
58534;BME280;44109;52.398;7.024;2024-02-26T03:36:04;99964.59;;;5.11;100.00
58534;BME280;44109;52.398;7.024;2024-02-26T03:38:33;99979.28;;;5.02;100.00
58534;BME280;44109;52.398;7.024;2024-02-26T03:41:01;99971.25;;;5.25;100.00
58534;BME280;44109;52.398;7.024;2024-02-26T03:43:27;99964.69;;;5.14;100.00
58534;BME280;44109;52.398;7.024;2024-02-26T03:45:55;99966.63;;;5.45;100.00
58534;BME280;44109;52.398;7.024;2024-02-26T03:48:24;99975.06;;;5.68;100.00
58534;BME280;44109;52.398;7.024;2024-02-26T03:50:51;99972.28;;;5.68;100.00
58534;BME280;44109;52.398;7.024;2024-02-26T03:53:19;99983.38;;;5.72;100.00
58534;BME280;44109;52.398;7.024;2024-02-26T03:55:47;99980.78;;;5.63;100.00
58534;BME280;44109;52.398;7.024;2024-02-26T03:58:15;99980.13;;;5.50;100.00
58534;BME280;44109;52.398;7.024;2024-02-26T04:00:43;99992.97;;;5.30;100.00
58534;BME280;44109;52.398;7.024;2024-02-26T04:03:10;99984.97;;;5.73;100.00
58534;BME280;44109;52.398;7.024;2024-02-26T04:05:39;99995.34;;;5.79;100.00
58534;BME280;44109;52.398;7.024;2024-02-26T04:08:07;99991.38;;;5.77;100.00
58534;BME280;44109;52.398;7.024;2024-02-26T04:10:34;99994.31;;;5.52;100.00
58534;BME280;44109;52.398;7.024;2024-02-26T04:13:04;100003.19;;;5.77;100.00
58534;BME280;44109;52.398;7.024;2024-02-26T04:15:32;100008.69;;;5.77;100.00
58534;BME280;44109;52.398;7.024;2024-02-26T04:17:59;99994.81;;;5.58;100.00
58534;BME280;44109;52.398;7.024;2024-02-26T04:20:27;100002.38;;;5.61;100.00
58534;BME280;44109;52.398;7.024;2024-02-26T04:22:56;100013.63;;;5.88;100.00
58534;BME280;44109;52.398;7.024;2024-02-26T04:25:23;100009.94;;;5.64;100.00
58534;BME280;44109;52.398;7.024;2024-02-26T04:27:51;100013.81;;;5.95;100.00
58534;BME280;44109;52.398;7.024;2024-02-26T04:30:18;100018.19;;;5.64;100.00
58534;BME280;44109;52.398;7.024;2024-02-26T04:32:46;100024.31;;;5.73;100.00
58534;BME280;44109;52.398;7.024;2024-02-26T04:35:13;100026.00;;;5.78;100.00
58534;BME280;44109;52.398;7.024;2024-02-26T04:37:41;100028.00;;;5.81;100.00
58534;BME280;44109;52.398;7.024;2024-02-26T04:40:11;100032.72;;;5.80;100.00
58534;BME280;44109;52.398;7.024;2024-02-26T04:42:39;100036.72;;;5.67;100.00
58534;BME280;44109;52.398;7.024;2024-02-26T04:45:07;100028.22;;;5.72;100.00
58534;BME280;44109;52.398;7.024;2024-02-26T04:47:35;100037.25;;;6.04;100.00
58534;BME280;44109;52.398;7.024;2024-02-26T04:50:03;100032.72;;;5.80;100.00
58534;BME280;44109;52.398;7.024;2024-02-26T04:52:31;100032.19;;;5.91;100.00
58534;BME280;44109;52.398;7.024;2024-02-26T04:54:59;100040.72;;;6.01;100.00
58534;BME280;44109;52.398;7.024;2024-02-26T04:57:28;100042.97;;;5.96;100.00
58534;BME280;44109;52.398;7.024;2024-02-26T04:59:56;100051.97;;;6.12;100.00
58534;BME280;44109;52.398;7.024;2024-02-26T05:02:23;100047.81;;;6.02;100.00
58534;BME280;44109;52.398;7.024;2024-02-26T05:04:51;100056.00;;;5.99;100.00
58534;BME280;44109;52.398;7.024;2024-02-26T05:07:18;100050.81;;;6.13;100.00
58534;BME280;44109;52.398;7.024;2024-02-26T05:09:46;100051.19;;;5.64;100.00
58534;BME280;44109;52.398;7.024;2024-02-26T05:12:15;100056.59;;;5.45;100.00
58534;BME280;44109;52.398;7.024;2024-02-26T05:14:44;100056.97;;;5.59;100.00
58534;BME280;44109;52.398;7.024;2024-02-26T05:17:12;100048.53;;;5.83;100.00
58534;BME280;44109;52.398;7.024;2024-02-26T05:19:39;100058.47;;;5.72;100.00
58534;BME280;44109;52.398;7.024;2024-02-26T05:22:07;100040.09;;;5.60;100.00
58534;BME280;44109;52.398;7.024;2024-02-26T05:24:37;100052.72;;;6.09;100.00
58534;BME280;44109;52.398;7.024;2024-02-26T05:27:05;100050.75;;;5.94;100.00
58534;BME280;44109;52.398;7.024;2024-02-26T05:29:32;100064.88;;;5.60;100.00
58534;BME280;44109;52.398;7.024;2024-02-26T05:32:01;100059.00;;;5.78;100.00
58534;BME280;44109;52.398;7.024;2024-02-26T05:34:29;100060.06;;;5.57;100.00
58534;BME280;44109;52.398;7.024;2024-02-26T05:36:57;100061.25;;;5.72;100.00
58534;BME280;44109;52.398;7.024;2024-02-26T05:39:24;100064.19;;;5.95;100.00
58534;BME280;44109;52.398;7.024;2024-02-26T05:41:52;100060.78;;;6.02;100.00
58534;BME280;44109;52.398;7.024;2024-02-26T05:44:22;100073.72;;;6.17;100.00
58534;BME280;44109;52.398;7.024;2024-02-26T05:46:50;100074.97;;;6.20;100.00
58534;BME280;44109;52.398;7.024;2024-02-26T05:49:18;100073.47;;;6.06;100.00
58534;BME280;44109;52.398;7.024;2024-02-26T05:51:47;100070.09;;;6.13;100.00
58534;BME280;44109;52.398;7.024;2024-02-26T05:54:15;100077.81;;;6.23;100.00
58534;BME280;44109;52.398;7.024;2024-02-26T05:56:43;100083.06;;;6.28;100.00
58534;BME280;44109;52.398;7.024;2024-02-26T05:59:10;100082.16;;;6.24;100.00
58534;BME280;44109;52.398;7.024;2024-02-26T06:01:38;100093.88;;;6.21;100.00
58534;BME280;44109;52.398;7.024;2024-02-26T06:04:05;100089.25;;;6.25;100.00
58534;BME280;44109;52.398;7.024;2024-02-26T06:06:34;100086.78;;;6.20;100.00
58534;BME280;44109;52.398;7.024;2024-02-26T06:09:02;100100.66;;;6.08;100.00
58534;BME280;44109;52.398;7.024;2024-02-26T06:11:31;100095.25;;;5.96;100.00
58534;BME280;44109;52.398;7.024;2024-02-26T06:13:58;100109.25;;;5.91;100.00
58534;BME280;44109;52.398;7.024;2024-02-26T06:16:26;100112.91;;;5.95;100.00
58534;BME280;44109;52.398;7.024;2024-02-26T06:18:54;100115.06;;;6.01;100.00
58534;BME280;44109;52.398;7.024;2024-02-26T06:21:22;100113.28;;;6.09;100.00
58534;BME280;44109;52.398;7.024;2024-02-26T06:23:51;100116.13;;;5.97;100.00
58534;BME280;44109;52.398;7.024;2024-02-26T06:26:19;100116.22;;;6.00;100.00
58534;BME280;44109;52.398;7.024;2024-02-26T06:28:46;100118.81;;;5.81;100.00
58534;BME280;44109;52.398;7.024;2024-02-26T06:31:14;100128.06;;;5.89;100.00
58534;BME280;44109;52.398;7.024;2024-02-26T06:33:41;100117.91;;;6.05;100.00
58534;BME280;44109;52.398;7.024;2024-02-26T06:36:09;100123.97;;;5.51;100.00
58534;BME280;44109;52.398;7.024;2024-02-26T06:38:37;100125.78;;;6.06;100.00
58534;BME280;44109;52.398;7.024;2024-02-26T06:41:06;100121.16;;;5.79;100.00
58534;BME280;44109;52.398;7.024;2024-02-26T06:43:33;100119.84;;;5.45;100.00
58534;BME280;44109;52.398;7.024;2024-02-26T06:46:01;100128.56;;;5.63;100.00
58534;BME280;44109;52.398;7.024;2024-02-26T06:48:29;100129.44;;;5.95;100.00
58534;BME280;44109;52.398;7.024;2024-02-26T06:50:56;100150.03;;;6.17;100.00
58534;BME280;44109;52.398;7.024;2024-02-26T06:53:24;100153.22;;;6.34;100.00
58534;BME280;44109;52.398;7.024;2024-02-26T06:55:51;100145.13;;;6.26;100.00
58534;BME280;44109;52.398;7.024;2024-02-26T06:58:20;100148.16;;;6.21;100.00
58534;BME280;44109;52.398;7.024;2024-02-26T07:00:48;100143.72;;;6.32;100.00
58534;BME280;44109;52.398;7.024;2024-02-26T07:03:15;100149.94;;;6.29;100.00
58534;BME280;44109;52.398;7.024;2024-02-26T07:05:43;100152.88;;;6.20;100.00
58534;BME280;44109;52.398;7.024;2024-02-26T07:08:12;100153.97;;;6.31;100.00
58534;BME280;44109;52.398;7.024;2024-02-26T07:10:39;100161.66;;;6.42;100.00
58534;BME280;44109;52.398;7.024;2024-02-26T07:13:07;100148.97;;;6.21;100.00
58534;BME280;44109;52.398;7.024;2024-02-26T07:15:36;100164.16;;;6.15;100.00
58534;BME280;44109;52.398;7.024;2024-02-26T07:18:04;100160.41;;;6.39;100.00
58534;BME280;44109;52.398;7.024;2024-02-26T07:20:32;100161.38;;;6.47;100.00
58534;BME280;44109;52.398;7.024;2024-02-26T07:23:00;100163.31;;;6.62;100.00
58534;BME280;44109;52.398;7.024;2024-02-26T07:25:27;100169.56;;;6.12;100.00
58534;BME280;44109;52.398;7.024;2024-02-26T07:27:55;100175.81;;;6.24;100.00
58534;BME280;44109;52.398;7.024;2024-02-26T07:30:22;100171.97;;;6.29;100.00
58534;BME280;44109;52.398;7.024;2024-02-26T07:32:52;100169.63;;;6.63;100.00
58534;BME280;44109;52.398;7.024;2024-02-26T07:35:20;100176.28;;;5.82;100.00
58534;BME280;44109;52.398;7.024;2024-02-26T07:37:48;100180.31;;;6.17;100.00
58534;BME280;44109;52.398;7.024;2024-02-26T07:40:17;100175.28;;;5.59;100.00
58534;BME280;44109;52.398;7.024;2024-02-26T07:42:44;100174.50;;;5.74;100.00
58534;BME280;44109;52.398;7.024;2024-02-26T07:45:12;100172.19;;;5.32;100.00
58534;BME280;44109;52.398;7.024;2024-02-26T07:47:41;100182.81;;;5.62;100.00
58534;BME280;44109;52.398;7.024;2024-02-26T07:50:10;100182.00;;;6.21;100.00
58534;BME280;44109;52.398;7.024;2024-02-26T07:52:39;100185.50;;;6.18;100.00
58534;BME280;44109;52.398;7.024;2024-02-26T07:55:07;100179.09;;;6.46;100.00
58534;BME280;44109;52.398;7.024;2024-02-26T07:57:35;100187.06;;;6.35;100.00
58534;BME280;44109;52.398;7.024;2024-02-26T08:00:03;100182.78;;;6.53;100.00
58534;BME280;44109;52.398;7.024;2024-02-26T08:02:33;100184.50;;;6.26;100.00
58534;BME280;44109;52.398;7.024;2024-02-26T08:05:01;100188.50;;;6.13;100.00
58534;BME280;44109;52.398;7.024;2024-02-26T08:07:30;100192.69;;;6.39;100.00
58534;BME280;44109;52.398;7.024;2024-02-26T08:09:57;100191.31;;;6.64;100.00
58534;BME280;44109;52.398;7.024;2024-02-26T08:12:25;100193.91;;;6.57;100.00
58534;BME280;44109;52.398;7.024;2024-02-26T08:14:52;100201.47;;;6.60;100.00
58534;BME280;44109;52.398;7.024;2024-02-26T08:17:20;100214.41;;;6.75;100.00
58534;BME280;44109;52.398;7.024;2024-02-26T08:19:48;100215.03;;;7.04;100.00
58534;BME280;44109;52.398;7.024;2024-02-26T08:22:15;100216.84;;;6.61;100.00
58534;BME280;44109;52.398;7.024;2024-02-26T08:24:45;100217.38;;;6.19;100.00
58534;BME280;44109;52.398;7.024;2024-02-26T08:27:12;100221.03;;;6.90;100.00
58534;BME280;44109;52.398;7.024;2024-02-26T08:29:40;100223.75;;;6.86;100.00
58534;BME280;44109;52.398;7.024;2024-02-26T08:32:08;100201.53;;;6.99;100.00
58534;BME280;44109;52.398;7.024;2024-02-26T08:34:35;100220.69;;;6.92;100.00
58534;BME280;44109;52.398;7.024;2024-02-26T08:37:03;100218.63;;;6.38;100.00
58534;BME280;44109;52.398;7.024;2024-02-26T08:39:33;100228.94;;;6.41;100.00
58534;BME280;44109;52.398;7.024;2024-02-26T08:42:02;100232.84;;;6.40;100.00
58534;BME280;44109;52.398;7.024;2024-02-26T08:44:29;100233.16;;;6.85;100.00
58534;BME280;44109;52.398;7.024;2024-02-26T08:46:57;100220.91;;;6.67;100.00
58534;BME280;44109;52.398;7.024;2024-02-26T08:49:24;100230.78;;;6.52;100.00
58534;BME280;44109;52.398;7.024;2024-02-26T08:51:52;100234.78;;;6.39;100.00
58534;BME280;44109;52.398;7.024;2024-02-26T08:54:20;100241.69;;;6.96;100.00
58534;BME280;44109;52.398;7.024;2024-02-26T08:56:47;100243.09;;;6.90;100.00
58534;BME280;44109;52.398;7.024;2024-02-26T08:59:16;100251.34;;;6.55;100.00
58534;BME280;44109;52.398;7.024;2024-02-26T09:01:48;100254.16;;;6.43;100.00
58534;BME280;44109;52.398;7.024;2024-02-26T09:04:16;100247.50;;;6.59;100.00
58534;BME280;44109;52.398;7.024;2024-02-26T09:06:43;100256.84;;;6.23;100.00
58534;BME280;44109;52.398;7.024;2024-02-26T09:09:11;100257.16;;;7.01;100.00
58534;BME280;44109;52.398;7.024;2024-02-26T09:11:38;100258.06;;;7.24;100.00
58534;BME280;44109;52.398;7.024;2024-02-26T09:14:06;100263.75;;;6.80;100.00
58534;BME280;44109;52.398;7.024;2024-02-26T09:16:35;100269.53;;;6.91;100.00
58534;BME280;44109;52.398;7.024;2024-02-26T09:19:02;100265.53;;;6.89;100.00
58534;BME280;44109;52.398;7.024;2024-02-26T09:21:30;100265.47;;;7.20;100.00
58534;BME280;44109;52.398;7.024;2024-02-26T09:23:57;100268.09;;;7.32;100.00
58534;BME280;44109;52.398;7.024;2024-02-26T09:26:25;100270.78;;;7.29;100.00
58534;BME280;44109;52.398;7.024;2024-02-26T09:28:52;100283.56;;;7.02;100.00
58534;BME280;44109;52.398;7.024;2024-02-26T09:31:20;100274.13;;;7.03;100.00
58534;BME280;44109;52.398;7.024;2024-02-26T09:33:49;100295.91;;;7.08;100.00
58534;BME280;44109;52.398;7.024;2024-02-26T09:36:17;100283.03;;;6.80;100.00
58534;BME280;44109;52.398;7.024;2024-02-26T09:38:44;100299.13;;;6.63;100.00
58534;BME280;44109;52.398;7.024;2024-02-26T09:41:14;100287.38;;;6.18;100.00
58534;BME280;44109;52.398;7.024;2024-02-26T09:43:45;100299.50;;;6.61;100.00
58534;BME280;44109;52.398;7.024;2024-02-26T09:46:13;100299.56;;;6.33;100.00
58534;BME280;44109;52.398;7.024;2024-02-26T09:48:44;100313.91;;;7.02;100.00
58534;BME280;44109;52.398;7.024;2024-02-26T09:51:16;100289.69;;;7.11;100.00
58534;BME280;44109;52.398;7.024;2024-02-26T09:53:46;100312.31;;;6.85;100.00
58534;BME280;44109;52.398;7.024;2024-02-26T09:56:18;100306.53;;;6.74;100.00
58534;BME280;44109;52.398;7.024;2024-02-26T09:58:47;100305.13;;;7.31;100.00
58534;BME280;44109;52.398;7.024;2024-02-26T10:01:19;100322.09;;;6.82;100.00
58534;BME280;44109;52.398;7.024;2024-02-26T10:03:55;100328.56;;;6.90;100.00
58534;BME280;44109;52.398;7.024;2024-02-26T10:06:26;100322.88;;;7.15;100.00
58534;BME280;44109;52.398;7.024;2024-02-26T10:08:54;100329.91;;;7.47;100.00
58534;BME280;44109;52.398;7.024;2024-02-26T10:11:25;100330.94;;;7.23;100.00
58534;BME280;44109;52.398;7.024;2024-02-26T10:13:54;100331.88;;;6.96;100.00
58534;BME280;44109;52.398;7.024;2024-02-26T10:16:21;100343.25;;;6.94;100.00
58534;BME280;44109;52.398;7.024;2024-02-26T10:18:51;100350.78;;;7.29;100.00
58534;BME280;44109;52.398;7.024;2024-02-26T10:21:20;100343.50;;;7.21;100.00
58534;BME280;44109;52.398;7.024;2024-02-26T10:23:50;100343.50;;;7.21;100.00
58534;BME280;44109;52.398;7.024;2024-02-26T10:26:17;100361.19;;;7.71;100.00
58534;BME280;44109;52.398;7.024;2024-02-26T10:28:46;100358.63;;;7.27;100.00
58534;BME280;44109;52.398;7.024;2024-02-26T10:31:14;100351.81;;;7.75;100.00
58534;BME280;44109;52.398;7.024;2024-02-26T10:33:43;100365.66;;;7.24;100.00
58534;BME280;44109;52.398;7.024;2024-02-26T10:36:10;100366.38;;;7.92;100.00
58534;BME280;44109;52.398;7.024;2024-02-26T10:38:39;100382.75;;;7.65;100.00
58534;BME280;44109;52.398;7.024;2024-02-26T10:41:13;100379.97;;;8.20;100.00
58534;BME280;44109;52.398;7.024;2024-02-26T10:43:42;100396.16;;;7.47;100.00
58534;BME280;44109;52.398;7.024;2024-02-26T10:46:09;100383.13;;;7.48;100.00
58534;BME280;44109;52.398;7.024;2024-02-26T10:48:38;100395.84;;;7.68;100.00
58534;BME280;44109;52.398;7.024;2024-02-26T10:51:06;100391.44;;;7.83;100.00
58534;BME280;44109;52.398;7.024;2024-02-26T10:53:41;100401.44;;;7.72;100.00
58534;BME280;44109;52.398;7.024;2024-02-26T10:56:14;100409.25;;;7.50;100.00
58534;BME280;44109;52.398;7.024;2024-02-26T10:58:45;100403.84;;;6.91;100.00
58534;BME280;44109;52.398;7.024;2024-02-26T11:01:14;100399.28;;;7.30;100.00
58534;BME280;44109;52.398;7.024;2024-02-26T11:03:42;100405.16;;;7.28;100.00
58534;BME280;44109;52.398;7.024;2024-02-26T11:06:12;100401.91;;;6.63;100.00
58534;BME280;44109;52.398;7.024;2024-02-26T11:08:40;100408.88;;;6.89;100.00
58534;BME280;44109;52.398;7.024;2024-02-26T11:11:08;100421.06;;;7.35;100.00
58534;BME280;44109;52.398;7.024;2024-02-26T11:13:42;100412.94;;;6.63;100.00
58534;BME280;44109;52.398;7.024;2024-02-26T11:16:16;100416.47;;;6.48;100.00
58534;BME280;44109;52.398;7.024;2024-02-26T11:18:46;100416.19;;;6.53;100.00
58534;BME280;44109;52.398;7.024;2024-02-26T11:21:15;100428.13;;;7.01;100.00
58534;BME280;44109;52.398;7.024;2024-02-26T11:23:45;100417.47;;;6.71;100.00
58534;BME280;44109;52.398;7.024;2024-02-26T11:26:14;100423.63;;;6.37;100.00
58534;BME280;44109;52.398;7.024;2024-02-26T11:28:46;100432.47;;;6.86;100.00
58534;BME280;44109;52.398;7.024;2024-02-26T11:31:15;100423.28;;;6.38;100.00
58534;BME280;44109;52.398;7.024;2024-02-26T11:33:44;100427.75;;;6.86;100.00
58534;BME280;44109;52.398;7.024;2024-02-26T11:36:12;100426.91;;;6.70;100.00
58534;BME280;44109;52.398;7.024;2024-02-26T11:38:40;100422.47;;;6.66;100.00
58534;BME280;44109;52.398;7.024;2024-02-26T11:41:08;100422.53;;;6.25;100.00
58534;BME280;44109;52.398;7.024;2024-02-26T11:43:53;100427.84;;;6.46;100.00
58534;BME280;44109;52.398;7.024;2024-02-26T11:46:27;100420.41;;;6.63;100.00
58534;BME280;44109;52.398;7.024;2024-02-26T11:49:01;100430.50;;;6.43;100.00
58534;BME280;44109;52.398;7.024;2024-02-26T11:51:33;100426.31;;;6.93;100.00
58534;BME280;44109;52.398;7.024;2024-02-26T11:54:02;100416.97;;;6.38;100.00
58534;BME280;44109;52.398;7.024;2024-02-26T11:56:29;100421.88;;;6.72;100.00
58534;BME280;44109;52.398;7.024;2024-02-26T11:59:03;100416.94;;;6.66;100.00
58534;BME280;44109;52.398;7.024;2024-02-26T12:01:38;100414.03;;;6.74;100.00
58534;BME280;44109;52.398;7.024;2024-02-26T12:04:06;100413.34;;;6.77;100.00
58534;BME280;44109;52.398;7.024;2024-02-26T12:06:46;100417.19;;;7.04;100.00
58534;BME280;44109;52.398;7.024;2024-02-26T12:09:30;100424.19;;;7.33;100.00
58534;BME280;44109;52.398;7.024;2024-02-26T12:12:00;100434.06;;;7.50;100.00
58534;BME280;44109;52.398;7.024;2024-02-26T12:14:33;100426.97;;;7.33;100.00
58534;BME280;44109;52.398;7.024;2024-02-26T12:17:03;100428.22;;;7.20;100.00
58534;BME280;44109;52.398;7.024;2024-02-26T12:19:34;100435.31;;;7.21;100.00
58534;BME280;44109;52.398;7.024;2024-02-26T12:22:02;100438.25;;;7.60;100.00
58534;BME280;44109;52.398;7.024;2024-02-26T12:24:33;100438.63;;;6.95;100.00
58534;BME280;44109;52.398;7.024;2024-02-26T12:27:01;100435.59;;;7.16;100.00
58534;BME280;44109;52.398;7.024;2024-02-26T12:29:30;100444.47;;;6.94;100.00
58534;BME280;44109;52.398;7.024;2024-02-26T12:31:58;100441.97;;;6.89;100.00
58534;BME280;44109;52.398;7.024;2024-02-26T12:34:26;100452.41;;;7.11;100.00
58534;BME280;44109;52.398;7.024;2024-02-26T12:36:54;100444.31;;;6.86;100.00
58534;BME280;44109;52.398;7.024;2024-02-26T12:39:22;100451.25;;;7.44;100.00
58534;BME280;44109;52.398;7.024;2024-02-26T12:41:50;100462.38;;;7.63;100.00
58534;BME280;44109;52.398;7.024;2024-02-26T12:44:24;100462.56;;;7.54;100.00
58534;BME280;44109;52.398;7.024;2024-02-26T12:47:01;100438.94;;;6.94;100.00
58534;BME280;44109;52.398;7.024;2024-02-26T12:49:30;100453.03;;;7.20;100.00
58534;BME280;44109;52.398;7.024;2024-02-26T12:51:58;100478.31;;;7.38;100.00
58534;BME280;44109;52.398;7.024;2024-02-26T12:54:28;100478.69;;;7.36;100.00
58534;BME280;44109;52.398;7.024;2024-02-26T12:56:58;100479.91;;;7.23;100.00
58534;BME280;44109;52.398;7.024;2024-02-26T12:59:26;100478.38;;;7.73;100.00